Airfield :







YOU CAN JOIN US ON...

 
LOGIN :

Register | Disclaimer

   EN    FR    IT 

 









Legend :    VFR   Marginal VFR   IFR   Intensive IFR   Very Intensive IFR
Visi :
Ceiling :
>= 8 km
>= 3000ft
5 to 8 km
1000 to 3000 ft
1500m to 5 km
500 to 1000 ft
800 to 1500m
200 to 500 ft
< 800m
< 200 ft
Symbols :   Thunderstorms  Fog  Heavy snow  Heavy precipitations  Wind > 20 kt






- Airport Elevation : 175 ft
- IATA code : YLC


CYLC - Kimmirut

CURRENT METAR :
  • 171900Z 13011G19KT 15SM OVC015 04/M01 A2943 RMK SC8 LASTSTFD OBS/NXT 201100Z SLP972

EXPIRED METARs :
  • 171800Z 13012KT 15SM OVC015 04/00 A2944 RMK SC8 CIG ESTD SLP974
  • 171747Z 13010G19KT 15SM BKN015 OVC020 04/00 A2945 RMK SC5SC3 SLP976
  • 171735Z 13013G18KT 15SM -DZ SCT015 BKN020 04/00 A2945 RMK SC3SC4 CIG ESTD SLP976
  • 171700Z 12011G17KT 6SM -DZ SCT010 OVC015 03/01 A2945 RMK ST3SC5 CIG ESTD SLP977

TAF N/A
CZUL FIR / North America



MET'MAP, your aeronautical weather chart ! - Copyright ORBIFLY December 2007 - Disclaimer

ORBIFLY MET'MAP TEAM :

Programming & Development : Alexandra Zaïnal
Concept & original design : Baudouin d'Aumeries
Assistance for programming : Marc-Olivier Méhu
Technical & hardware support : Manuel Goepfert

Contact : metmap@orbifly.com




SOURCES & CREDITS :

   NOAA